PAFR METAR and TAF weather

Enter ICAO airport designator
Station Type Date Time Source
PAFR METAR 2020/07/10 23:28 UTC NOAA

PAFR 102328Z AUTO 25006KT 9SM FEW029 SCT042 20/12 A2971 RMK AO2 SLP066


Station Type Date Time Source
PAFR Decoded METAR 2020/07/10 23:28 UTC NOAA

Ft. Richardson / Bryant U. S. Army Heliport, Ak, AK, United States (PAFR) 61-16N 149-39W 115M
Jul 10, 2020 - 07:28 PM EDT / 2020.07.10 2328 UTC
Wind: from the WSW (250 degrees) at 7 MPH (6 KT):0
Visibility: 9 mile(s):0
Sky conditions: partly cloudy
Temperature: 68 F (20 C)
Dew Point: 53 F (12 C)
Relative Humidity: 59%
Pressure (altimeter): 29.71 in. Hg (1006 hPa)
ob: PAFR 102328Z AUTO 25006KT 9SM FEW029 SCT042 20/12 A2971 RMK AO2 SLP066
cycle: 23

Station Type Date Time Source
PAFR TAF UTC NOAA

Error!

Example: see airport list